createdAt,value
2018-06-29T00:01:03.017Z,99.9
2018-06-29T00:02:10.913Z,99.9
2018-06-29T00:03:18.985Z,99.9
2018-06-29T00:04:26.881Z,99.9
2018-06-29T00:05:34.794Z,99.9
2018-06-29T00:06:42.680Z,99.9
2018-06-29T00:07:50.605Z,99.9
2018-06-29T00:08:58.497Z,99.9
2018-06-29T00:10:06.401Z,99.9
2018-06-29T00:11:14.297Z,99.9
2018-06-29T00:12:22.211Z,99.9
2018-06-29T00:13:30.103Z,99.9
2018-06-29T00:14:38.007Z,99.9
2018-06-29T00:15:45.617Z,99.9
2018-06-29T00:16:53.246Z,99.9
2018-06-29T00:18:01.133Z,99.9
2018-06-29T00:19:09.041Z,99.9
2018-06-29T00:20:16.937Z,99.9
2018-06-29T00:21:24.840Z,99.9
2018-06-29T00:22:32.454Z,99.9
2018-06-29T00:23:40.360Z,99.9
2018-06-29T00:24:48.248Z,99.9
2018-06-29T00:25:55.887Z,99.9
2018-06-29T00:27:03.794Z,99.9
2018-06-29T00:28:11.695Z,99.9
2018-06-29T00:29:19.584Z,99.9
2018-06-29T00:30:27.482Z,99.9
2018-06-29T00:31:35.097Z,99.9
2018-06-29T00:32:42.724Z,99.9
2018-06-29T00:33:50.624Z,99.9
2018-06-29T00:34:58.521Z,99.9
2018-06-29T00:36:06.414Z,99.9
2018-06-29T00:37:14.518Z,99.9
2018-06-29T00:38:22.409Z,99.9
2018-06-29T00:39:30.318Z,99.9
2018-06-29T00:40:38.206Z,99.9
2018-06-29T00:41:46.112Z,99.9
2018-06-29T00:42:53.998Z,99.9
2018-06-29T00:44:01.904Z,99.9
2018-06-29T00:45:09.795Z,99.9
2018-06-29T00:46:17.703Z,99.9
2018-06-29T00:47:25.598Z,99.9
2018-06-29T00:48:33.667Z,99.9
2018-06-29T00:49:41.560Z,99.9
2018-06-29T00:50:49.193Z,99.9
2018-06-29T00:51:57.091Z,99.9
2018-06-29T00:53:04.994Z,99.9
2018-06-29T00:54:12.886Z,99.9
2018-06-29T00:55:20.883Z,99.9
2018-06-29T00:56:29.064Z,99.9
2018-06-29T00:57:36.969Z,99.9
2018-06-29T00:58:44.861Z,99.9
2018-06-29T00:59:52.505Z,99.9
2018-06-29T01:01:00.396Z,99.9
2018-06-29T01:02:08.301Z,99.9
2018-06-29T01:03:16.190Z,99.9
2018-06-29T01:04:23.828Z,99.9
2018-06-29T01:05:31.731Z,99.9
2018-06-29T01:06:39.635Z,99.9
2018-06-29T01:07:47.523Z,99.9
2018-06-29T01:08:55.439Z,99.9
2018-06-29T01:10:03.333Z,99.9
2018-06-29T01:11:11.234Z,99.9
2018-06-29T01:12:19.142Z,99.9
2018-06-29T01:13:27.054Z,99.9
2018-06-29T01:14:34.944Z,99.9
2018-06-29T01:15:42.847Z,99.9
2018-06-29T01:16:50.464Z,99.9
2018-06-29T01:17:58.368Z,99.9
2018-06-29T01:19:05.721Z,99.9
2018-06-29T01:20:13.626Z,99.9
2018-06-29T01:21:21.515Z,99.9
2018-06-29T01:22:29.152Z,99.9
2018-06-29T01:23:36.365Z,99.9
2018-06-29T01:24:44.271Z,99.9
2018-06-29T01:25:52.163Z,99.9
2018-06-29T01:27:00.068Z,99.9
2018-06-29T01:28:07.707Z,99.9
2018-06-29T01:29:15.330Z,99.9
2018-06-29T01:30:23.226Z,99.9
2018-06-29T01:31:31.126Z,99.9
2018-06-29T01:32:39.016Z,99.9
2018-06-29T01:33:46.918Z,99.9
2018-06-29T01:34:54.804Z,99.9
2018-06-29T01:36:02.709Z,99.9
2018-06-29T01:37:10.597Z,99.9
2018-06-29T01:38:18.501Z,99.9
2018-06-29T01:39:26.394Z,99.9
2018-06-29T01:40:34.296Z,99.9
2018-06-29T01:41:42.190Z,99.9
2018-06-29T01:42:50.095Z,99.9
2018-06-29T01:43:57.983Z,99.9
2018-06-29T01:45:05.888Z,99.9
2018-06-29T01:46:13.493Z,99.9
2018-06-29T01:47:21.434Z,99.9
2018-06-29T01:48:29.319Z,99.9
2018-06-29T01:49:37.226Z,99.9
2018-06-29T01:50:44.900Z,99.9
2018-06-29T01:51:52.526Z,99.9
2018-06-29T01:53:00.419Z,99.9
2018-06-29T01:54:08.053Z,99.9
2018-06-29T01:55:15.946Z,99.9
2018-06-29T01:56:23.860Z,99.9
2018-06-29T01:57:31.759Z,99.9
2018-06-29T01:58:39.391Z,99.9
2018-06-29T01:59:47.284Z,99.9
2018-06-29T02:00:54.913Z,99.9
2018-06-29T02:02:02.822Z,99.9
2018-06-29T02:03:10.707Z,99.9
2018-06-29T02:04:18.317Z,99.9
2018-06-29T02:05:26.224Z,99.9
2018-06-29T02:06:34.112Z,99.9
2018-06-29T02:07:42.013Z,99.9
2018-06-29T02:08:49.639Z,99.9
2018-06-29T02:09:57.277Z,99.9
2018-06-29T02:11:05.167Z,99.9
2018-06-29T02:12:12.798Z,99.9
2018-06-29T02:13:20.692Z,99.9
2018-06-29T02:14:28.594Z,99.9
2018-06-29T02:15:36.493Z,99.9
2018-06-29T02:16:44.395Z,99.9
2018-06-29T02:17:52.290Z,99.9
2018-06-29T02:18:59.912Z,99.9
2018-06-29T02:20:07.810Z,99.9
2018-06-29T02:21:15.712Z,99.9
2018-06-29T02:22:23.603Z,99.9
2018-06-29T02:23:31.512Z,99.9
2018-06-29T02:24:39.406Z,99.9
2018-06-29T02:25:47.318Z,99.9
2018-06-29T02:26:55.202Z,99.9
2018-06-29T02:28:02.842Z,99.9
2018-06-29T02:29:10.802Z,99.9
2018-06-29T02:30:18.867Z,99.9
2018-06-29T02:31:26.477Z,99.9
2018-06-29T02:32:34.112Z,99.9
2018-06-29T02:33:41.995Z,99.9
2018-06-29T02:34:49.905Z,99.9
2018-06-29T02:35:57.812Z,99.9
2018-06-29T02:37:05.719Z,99.9
2018-06-29T02:38:13.612Z,99.9
2018-06-29T02:39:21.517Z,99.9
2018-06-29T02:40:29.407Z,99.9
2018-06-29T02:41:37.324Z,99.9
2018-06-29T02:43:52.829Z,99.9
2018-06-29T02:45:00.716Z,99.9
2018-06-29T02:46:08.621Z,99.9
2018-06-29T02:47:16.512Z,99.9
2018-06-29T02:48:24.138Z,99.9
2018-06-29T02:49:32.028Z,99.9
2018-06-29T02:50:39.934Z,99.9
2018-06-29T02:51:47.822Z,99.9
2018-06-29T02:52:55.454Z,99.9
2018-06-29T02:54:03.388Z,99.9
2018-06-29T02:55:11.302Z,99.9
2018-06-29T02:56:19.189Z,99.9
2018-06-29T02:57:27.100Z,99.9
2018-06-29T02:58:34.996Z,99.9
2018-06-29T02:59:42.897Z,99.9
2018-06-29T03:00:50.787Z,99.9
2018-06-29T03:01:58.422Z,99.9
2018-06-29T03:03:06.036Z,99.9
2018-06-29T03:04:13.952Z,99.9
2018-06-29T03:05:21.834Z,99.9
2018-06-29T03:06:29.754Z,99.9
2018-06-29T03:07:37.387Z,99.9
2018-06-29T03:08:45.283Z,99.9
2018-06-29T03:09:52.894Z,99.9
2018-06-29T03:11:00.805Z,99.9
2018-06-29T03:12:08.688Z,99.9
2018-06-29T03:13:16.590Z,99.9
2018-06-29T03:14:24.212Z,99.9
2018-06-29T03:15:32.142Z,99.9
2018-06-29T03:16:40.030Z,99.9
2018-06-29T03:17:47.930Z,99.9
2018-06-29T03:18:55.551Z,99.9
2018-06-29T03:20:03.469Z,99.9
2018-06-29T03:21:11.360Z,99.9
2018-06-29T03:22:19.269Z,99.9
2018-06-29T03:23:27.159Z,99.9
2018-06-29T03:24:34.790Z,99.9
2018-06-29T03:25:42.683Z,99.9
2018-06-29T03:26:50.588Z,99.9
2018-06-29T03:27:58.479Z,99.9
2018-06-29T03:29:06.392Z,99.9
2018-06-29T03:30:14.284Z,99.9
2018-06-29T03:31:21.925Z,99.9
2018-06-29T03:32:29.809Z,99.9
2018-06-29T03:33:37.720Z,99.9
2018-06-29T03:34:45.620Z,99.9
2018-06-29T03:35:53.242Z,99.9
2018-06-29T03:37:01.140Z,99.9
2018-06-29T03:38:09.047Z,99.9
2018-06-29T03:39:16.969Z,99.9
2018-06-29T03:40:24.890Z,99.9
2018-06-29T03:41:33.216Z,99.9
2018-06-29T03:42:40.848Z,99.9
2018-06-29T03:43:48.733Z,99.9
2018-06-29T03:44:56.656Z,99.9
2018-06-29T03:46:04.552Z,99.9
2018-06-29T03:47:12.461Z,99.9
2018-06-29T03:48:20.348Z,99.9
2018-06-29T03:49:28.274Z,99.9
2018-06-29T03:50:36.294Z,99.9
2018-06-29T03:51:43.930Z,99.9
2018-06-29T03:52:51.829Z,99.9
2018-06-29T03:53:59.733Z,99.9
2018-06-29T03:55:07.646Z,99.9
2018-06-29T03:56:15.546Z,99.9
2018-06-29T03:57:23.434Z,99.9
2018-06-29T03:58:31.341Z,99.9
2018-06-29T03:59:39.235Z,99.9
2018-06-29T04:00:47.143Z,99.9
2018-06-29T04:01:55.036Z,99.9
2018-06-29T04:03:02.416Z,99.9
2018-06-29T04:04:10.308Z,99.9
2018-06-29T04:05:18.212Z,99.9
2018-06-29T04:06:26.107Z,99.9
2018-06-29T04:07:34.012Z,99.9
2018-06-29T04:08:41.903Z,99.9
2018-06-29T04:09:49.808Z,99.9
2018-06-29T04:10:57.712Z,99.9
2018-06-29T04:12:05.616Z,99.9
2018-06-29T04:13:13.516Z,99.9
2018-06-29T04:14:21.418Z,99.9
2018-06-29T04:15:29.041Z,99.9
2018-06-29T04:16:36.676Z,99.9
2018-06-29T04:17:44.568Z,99.9
2018-06-29T04:18:52.468Z,99.9
2018-06-29T04:20:00.363Z,99.9
2018-06-29T04:21:08.268Z,99.9
2018-06-29T04:22:16.159Z,99.9
2018-06-29T04:23:24.070Z,99.9
2018-06-29T04:24:31.971Z,99.9
2018-06-29T04:25:39.616Z,99.9
2018-06-29T04:26:47.510Z,99.9
2018-06-29T04:27:55.151Z,99.9
2018-06-29T04:29:03.045Z,99.9
2018-06-29T04:30:10.678Z,99.2
2018-06-29T04:31:18.573Z,99.3
2018-06-29T04:32:26.209Z,99.2
2018-06-29T04:33:34.103Z,99.2
2018-06-29T04:34:41.740Z,99.6
2018-06-29T04:35:49.631Z,99.9
2018-06-29T04:36:57.245Z,99.9
2018-06-29T04:38:05.140Z,99.9
2018-06-29T04:39:12.775Z,99.3
2018-06-29T04:40:20.665Z,99.8
2018-06-29T04:41:28.577Z,98.7
2018-06-29T04:42:36.472Z,99.3
2018-06-29T04:43:44.378Z,99.8
2018-06-29T04:44:52.266Z,99.2
2018-06-29T04:46:00.208Z,99.7
2018-06-29T04:47:07.820Z,99.8
2018-06-29T04:48:15.734Z,98.9
2018-06-29T04:49:23.656Z,99.2
2018-06-29T04:50:31.467Z,98.5
2018-06-29T04:51:39.365Z,98.6
2018-06-29T04:52:47.277Z,99.1
2018-06-29T04:53:55.173Z,97.8
2018-06-29T04:55:02.788Z,99
2018-06-29T04:56:10.690Z,98
2018-06-29T04:57:18.596Z,97.9
2018-06-29T04:58:26.494Z,97.4
2018-06-29T04:59:34.403Z,97.2
2018-06-29T05:00:42.297Z,96.5
2018-06-29T05:01:50.201Z,96.6
2018-06-29T05:02:58.090Z,96.8
2018-06-29T05:04:05.980Z,97.3
2018-06-29T05:05:13.877Z,96.7
2018-06-29T05:06:21.780Z,96.2
2018-06-29T05:07:29.674Z,97
2018-06-29T05:08:37.597Z,97
2018-06-29T05:09:45.532Z,95.8
2018-06-29T05:10:53.315Z,96.9
2018-06-29T05:12:01.210Z,96.4
2018-06-29T05:13:09.103Z,97.2
2018-06-29T05:14:17.001Z,97.3
2018-06-29T05:15:24.982Z,97.4
2018-06-29T05:16:32.728Z,97.1
2018-06-29T05:17:40.632Z,96.8
2018-06-29T05:18:48.517Z,96.1
2018-06-29T05:19:56.430Z,97.5
2018-06-29T05:21:04.318Z,96.1
2018-06-29T05:22:12.213Z,96.6
2018-06-29T05:23:20.101Z,96.2
2018-06-29T05:24:28.010Z,95.1
2018-06-29T05:25:35.900Z,95.3
2018-06-29T05:26:43.806Z,95.7
2018-06-29T05:27:51.703Z,96
2018-06-29T05:28:59.327Z,95.9
2018-06-29T05:30:06.944Z,96
2018-06-29T05:31:14.832Z,95.9
2018-06-29T05:32:22.466Z,96
2018-06-29T05:33:30.104Z,95.8
2018-06-29T05:34:37.994Z,95.7
2018-06-29T05:35:45.907Z,96.5
2018-06-29T05:36:53.942Z,96.3
2018-06-29T05:38:01.839Z,95.7
2018-06-29T05:39:09.452Z,94.6
2018-06-29T05:40:17.342Z,95.5
2018-06-29T05:41:25.261Z,94.9
2018-06-29T05:42:33.463Z,95.5
2018-06-29T05:43:41.420Z,95.9
2018-06-29T05:44:49.322Z,94.1
2018-06-29T05:45:57.218Z,93.4
2018-06-29T05:47:05.247Z,94.4
2018-06-29T05:48:13.316Z,92.5
2018-06-29T05:49:21.222Z,92.8
2018-06-29T05:50:29.394Z,92.6
2018-06-29T05:51:37.023Z,93.2
2018-06-29T05:52:44.912Z,93.1
2018-06-29T05:53:52.821Z,90.3
2018-06-29T05:55:00.712Z,90.7
2018-06-29T05:56:08.066Z,90
2018-06-29T05:58:23.343Z,90.5
2018-06-29T05:59:31.245Z,91.8
2018-06-29T06:00:39.156Z,90.7
2018-06-29T06:01:46.771Z,90.8
2018-06-29T06:02:54.678Z,87
2018-06-29T06:04:02.570Z,89.1
2018-06-29T06:05:10.475Z,90
2018-06-29T06:06:18.372Z,89.7
2018-06-29T06:07:26.268Z,89.9
2018-06-29T06:08:34.171Z,89.8
2018-06-29T06:09:41.790Z,88.7
2018-06-29T06:10:49.683Z,86.7
2018-06-29T06:11:57.583Z,87.7
2018-06-29T06:13:05.210Z,86
2018-06-29T06:14:13.132Z,86.9
2018-06-29T06:15:20.746Z,87.3
2018-06-29T06:16:28.651Z,86
2018-06-29T06:17:36.550Z,82.9
2018-06-29T06:18:44.457Z,80
2018-06-29T06:19:52.352Z,81
2018-06-29T06:21:00.261Z,82.2
2018-06-29T06:23:30.709Z,83.4
2018-06-29T06:24:38.598Z,80.2
2018-06-29T06:25:46.505Z,78.8
2018-06-29T06:26:54.394Z,78.2
2018-06-29T06:28:02.303Z,78.8
2018-06-29T06:29:10.200Z,78.8
2018-06-29T06:30:18.113Z,79.1
2018-06-29T06:31:26.015Z,78.6
2018-06-29T06:32:33.924Z,79.1
2018-06-29T06:33:41.817Z,82.8
2018-06-29T06:34:49.454Z,79.5
2018-06-29T06:35:57.076Z,76.9
2018-06-29T06:37:04.972Z,77.5
2018-06-29T06:38:12.868Z,77.8
2018-06-29T06:39:20.754Z,77.6
2018-06-29T06:40:28.645Z,73.6
2018-06-29T06:41:36.290Z,77.1
2018-06-29T06:42:44.361Z,77.8
2018-06-29T06:43:52.259Z,75.9
2018-06-29T06:45:00.151Z,69.2
2018-06-29T06:46:07.496Z,74.8
2018-06-29T06:47:15.386Z,78
2018-06-29T06:48:23.283Z,70.6
2018-06-29T06:49:31.181Z,69.6
2018-06-29T06:50:39.090Z,68.4
2018-06-29T06:51:46.995Z,71.9
2018-06-29T06:52:54.921Z,70.2
2018-06-29T06:54:02.818Z,71.7
2018-06-29T06:55:10.718Z,75.5
2018-06-29T06:56:18.665Z,67.4
2018-06-29T06:57:26.546Z,59.4
2018-06-29T06:58:34.441Z,57
2018-06-29T06:59:42.347Z,49
2018-06-29T07:00:50.249Z,48.6
2018-06-29T07:01:58.164Z,52.8
2018-06-29T07:03:06.048Z,59.6
2018-06-29T07:04:13.678Z,56.6
2018-06-29T07:05:21.574Z,43.7
2018-06-29T07:06:29.478Z,46.8
2018-06-29T07:07:37.105Z,49
2018-06-29T07:08:45.028Z,46.8
2018-06-29T07:09:52.911Z,50.3
2018-06-29T07:11:00.569Z,48.5
2018-06-29T07:12:08.464Z,43.2
2018-06-29T07:13:16.355Z,40.8
2018-06-29T07:14:24.247Z,40.7
2018-06-29T07:15:32.152Z,44.2
2018-06-29T07:16:40.052Z,34.7
2018-06-29T07:17:47.965Z,38.7
2018-06-29T07:18:55.871Z,43.4
2018-06-29T07:20:03.784Z,33.1
2018-06-29T07:21:11.677Z,34.7
2018-06-29T07:22:19.568Z,34.3
2018-06-29T07:23:27.190Z,40.9
2018-06-29T07:24:35.180Z,39
2018-06-29T07:25:43.309Z,38.8
2018-06-29T07:26:51.223Z,41.8
2018-06-29T07:27:59.120Z,40.3
2018-06-29T22:00:06.921Z,34.3
2018-06-29T22:01:14.538Z,35
2018-06-29T22:02:22.430Z,38.8
2018-06-29T22:03:30.319Z,38
2018-06-29T22:04:38.222Z,36.8
2018-06-29T22:05:46.115Z,37.4
2018-06-29T22:06:54.031Z,37.3
2018-06-29T22:08:01.938Z,40
2018-06-29T22:09:09.857Z,39.4
2018-06-29T22:10:17.748Z,39
2018-06-29T22:11:25.680Z,42
2018-06-29T22:12:33.571Z,37.4
2018-06-29T22:13:41.483Z,38.4
2018-06-29T22:14:49.376Z,39
2018-06-29T22:15:57.287Z,42.8
2018-06-29T22:17:05.182Z,40.8
2018-06-29T22:18:13.083Z,43.4
2018-06-29T22:19:20.693Z,42
2018-06-29T22:20:28.602Z,44.4
2018-06-29T22:21:36.534Z,42.7
2018-06-29T22:22:44.438Z,43.7
2018-06-29T22:23:52.326Z,45.9
2018-06-29T22:25:00.265Z,40.5
2018-06-29T22:26:08.160Z,43.4
2018-06-29T22:27:16.061Z,42.6
2018-06-29T22:28:23.953Z,41.5
2018-06-29T22:29:31.850Z,42.5
2018-06-29T22:30:39.743Z,46.3
2018-06-29T22:31:47.375Z,44.5
2018-06-29T22:32:55.262Z,45.5
2018-06-29T22:34:03.183Z,43.9
2018-06-29T22:35:11.099Z,42.5
2018-06-29T22:36:18.989Z,44.6
2018-06-29T22:37:26.879Z,45.4
2018-06-29T22:38:34.783Z,44.9
2018-06-29T22:39:42.681Z,46.2
2018-06-29T22:40:50.587Z,45.9
2018-06-29T22:41:58.205Z,45.7
2018-06-29T22:43:06.114Z,46
2018-06-29T22:44:14.006Z,44.5
2018-06-29T22:45:21.913Z,45.6
2018-06-29T22:46:29.803Z,47.1
2018-06-29T22:47:37.708Z,44.2
2018-06-29T22:48:45.598Z,45.2
2018-06-29T22:49:53.233Z,46
2018-06-29T22:51:01.127Z,46.3
2018-06-29T22:52:08.762Z,45
2018-06-29T22:53:16.642Z,44.4
2018-06-29T22:54:24.553Z,45.5
2018-06-29T22:55:32.471Z,45.9
2018-06-29T22:56:40.383Z,47
2018-06-29T22:58:55.880Z,46.1
2018-06-29T23:00:03.774Z,46
2018-06-29T23:01:11.681Z,45.2
2018-06-29T23:02:19.634Z,45.6
2018-06-29T23:03:27.547Z,47
2018-06-29T23:04:35.541Z,43.6
2018-06-29T23:05:43.292Z,45.7
2018-06-29T23:06:50.915Z,46.1
2018-06-29T23:07:58.817Z,45.7
2018-06-29T23:09:06.711Z,45.3
2018-06-29T23:10:14.604Z,44.4
2018-06-29T23:11:22.497Z,46.3
2018-06-29T23:12:30.131Z,47.5
2018-06-29T23:13:38.027Z,47.5
2018-06-29T23:14:45.656Z,47.5
2018-06-29T23:15:53.551Z,48.4
2018-06-29T23:17:01.475Z,45.3
2018-06-29T23:18:09.362Z,47
2018-06-29T23:19:16.762Z,47.8
2018-06-29T23:20:24.635Z,46.8
2018-06-29T23:21:32.543Z,44
2018-06-29T23:22:40.432Z,46.5
2018-06-29T23:23:48.344Z,45.1
2018-06-29T23:24:56.230Z,46.1
2018-06-29T23:26:04.136Z,48.3
2018-06-29T23:27:11.762Z,45
2018-06-29T23:28:19.664Z,48.5
2018-06-29T23:29:27.560Z,47.4
2018-06-29T23:30:35.196Z,47.2
2018-06-29T23:31:43.105Z,46.4
2018-06-29T23:32:51.016Z,48.9
2018-06-29T23:33:58.901Z,48.7
2018-06-29T23:35:06.526Z,48.5
2018-06-29T23:36:14.147Z,50.4
2018-06-29T23:37:22.054Z,50.1
2018-06-29T23:38:29.676Z,49.4
2018-06-29T23:39:37.310Z,46.3
2018-06-29T23:40:45.202Z,47.8
2018-06-29T23:41:53.106Z,50.7
2018-06-29T23:44:23.552Z,48.4
2018-06-29T23:45:31.503Z,48.5
2018-06-29T23:46:39.681Z,49.3
2018-06-29T23:47:47.318Z,50.4
2018-06-29T23:48:55.190Z,53.3
2018-06-29T23:50:03.078Z,54
2018-06-29T23:51:10.726Z,52.7
2018-06-29T23:52:18.664Z,52.5
2018-06-29T23:53:26.692Z,53.2
2018-06-29T23:54:34.583Z,53.9
2018-06-29T23:55:42.493Z,50.7
2018-06-29T23:56:50.104Z,52
2018-06-29T23:57:57.990Z,56.2
2018-06-29T23:59:05.874Z,54.6
